Time;durP1;ratioP1;P1;durP2;ratioP2;P2;SDS_P1;SDS_P2;PMS_P1;PMS_P2;Temp;Humidity;BMP_temperature;BMP_pressure;BME280_temperature;BME280_humidity;BME280_pressure;Samples;Min_cycle;Max_cycle;Signal;HPM_P1;HPM_P2
2022/11/20 00:00:50;;;;;;;17.20;9.10;;;3.10;85.60;;;;;;5041134;28;20100;-68
2022/11/20 00:03:19;;;;;;;18.40;9.43;;;3.10;85.60;;;;;;5047469;28;20565;-69
2022/11/20 00:05:46;;;;;;;18.52;10.23;;;3.10;85.60;;;;;;5042128;28;20060;-69
2022/11/20 00:08:13;;;;;;;17.83;9.93;;;3.10;85.50;;;;;;5044539;28;20234;-69
2022/11/20 00:10:41;;;;;;;20.42;10.57;;;3.10;85.60;;;;;;5044966;28;20044;-70
2022/11/20 00:13:08;;;;;;;19.60;10.52;;;3.10;85.60;;;;;;5044632;28;20112;-69
2022/11/20 00:15:37;;;;;;;22.17;10.98;;;3.10;85.50;;;;;;5044230;28;20143;-69
2022/11/20 00:18:04;;;;;;;17.40;10.05;;;3.10;85.60;;;;;;5043645;28;20064;-69
2022/11/20 00:20:31;;;;;;;18.25;10.18;;;3.10;85.60;;;;;;5040700;28;20053;-69
2022/11/20 00:22:58;;;;;;;16.38;9.48;;;3.10;85.80;;;;;;5046507;28;20048;-70
2022/11/20 00:25:25;;;;;;;19.83;9.80;;;3.20;85.60;;;;;;5046193;28;20407;-70
2022/11/20 00:27:52;;;;;;;19.80;10.20;;;3.10;85.60;;;;;;5051715;28;20873;-69
2022/11/20 00:30:19;;;;;;;17.85;10.05;;;3.10;85.70;;;;;;5048334;28;20102;-69
2022/11/20 00:32:47;;;;;;;18.08;9.68;;;3.10;85.50;;;;;;5047724;28;20055;-70
2022/11/20 00:35:14;;;;;;;18.23;10.07;;;3.00;85.60;;;;;;5044486;28;20069;-69
2022/11/20 00:37:41;;;;;;;19.45;9.88;;;3.00;85.60;;;;;;5046820;28;20072;-68
2022/11/20 00:40:12;;;;;;;18.52;9.90;;;3.00;85.60;;;;;;5043888;28;21265;-69
2022/11/20 00:42:39;;;;;;;19.08;9.65;;;3.00;85.60;;;;;;5044507;28;20048;-70
2022/11/20 00:45:07;;;;;;;16.83;9.02;;;3.00;85.60;;;;;;5047292;28;20061;-70
2022/11/20 00:47:33;;;;;;;19.35;10.55;;;3.00;85.60;;;;;;5045897;28;20420;-70
2022/11/20 00:50:02;;;;;;;19.30;9.70;;;2.90;85.60;;;;;;5031480;28;20519;-70
2022/11/20 00:52:29;;;;;;;19.42;9.77;;;2.90;85.80;;;;;;5052094;28;20049;-71
2022/11/20 00:54:56;;;;;;;18.42;9.77;;;2.90;85.70;;;;;;5046110;28;20103;-69
2022/11/20 00:57:22;;;;;;;18.83;9.38;;;2.80;85.80;;;;;;5043919;28;20041;-68
2022/11/20 00:59:49;;;;;;;18.20;10.73;;;2.80;85.80;;;;;;5046215;28;20541;-70
2022/11/20 01:02:16;;;;;;;20.27;10.35;;;2.80;85.80;;;;;;5048104;28;20150;-69
2022/11/20 01:04:43;;;;;;;19.45;10.38;;;2.80;85.90;;;;;;5044268;28;20566;-70
2022/11/20 01:07:12;;;;;;;19.10;9.48;;;2.80;86.10;;;;;;5047528;28;20142;-70
2022/11/20 01:09:42;;;;;;;19.17;9.20;;;2.80;86.30;;;;;;5046920;28;20041;-70
2022/11/20 01:12:08;;;;;;;15.47;8.67;;;2.70;86.20;;;;;;5047956;28;20041;-70
2022/11/20 01:14:35;;;;;;;22.05;9.88;;;2.80;86.40;;;;;;5046223;28;20385;-70
2022/11/20 01:17:02;;;;;;;18.50;9.55;;;2.80;86.30;;;;;;5048775;28;20511;-70
2022/11/20 01:19:32;;;;;;;19.48;9.80;;;2.80;86.30;;;;;;5049101;28;20508;-70
2022/11/20 01:21:59;;;;;;;17.70;9.30;;;2.80;86.40;;;;;;5051293;28;20056;-69
2022/11/20 01:24:28;;;;;;;20.88;9.80;;;2.90;86.20;;;;;;5041566;28;20061;-68
2022/11/20 01:26:54;;;;;;;20.02;10.73;;;2.90;86.20;;;;;;5048531;28;20052;-70
2022/11/20 01:29:24;;;;;;;19.52;10.02;;;2.90;86.10;;;;;;5046221;28;20049;-70
2022/11/20 01:31:52;;;;;;;19.42;9.43;;;2.90;86.20;;;;;;5046101;28;20040;-70
2022/11/20 01:34:21;;;;;;;18.02;10.63;;;2.90;86.20;;;;;;5047087;28;20454;-68
2022/11/20 01:36:49;;;;;;;20.20;10.25;;;2.90;86.10;;;;;;5050883;28;20052;-61
2022/11/20 01:39:18;;;;;;;18.98;10.55;;;2.80;86.10;;;;;;5049071;28;20068;-61
2022/11/20 01:44:52;;;;;;;20.15;9.85;;;2.90;86.20;;;;;;5042996;28;20056;-64
2022/11/20 01:47:26;;;;;;;18.10;9.63;;;2.80;86.20;;;;;;5050101;28;20073;-66
2022/11/20 01:49:57;;;;;;;15.85;8.95;;;2.90;86.20;;;;;;5047838;28;20155;-65
2022/11/20 01:52:25;;;;;;;;;;;2.80;86.30;;;;;;5045500;28;20428;-65
2022/11/20 01:54:56;;;;;;;20.23;9.88;;;2.90;86.40;;;;;;5043039;28;19931;-65
2022/11/20 01:57:28;;;;;;;20.08;9.40;;;2.90;86.40;;;;;;5039202;28;20535;-65
2022/11/20 02:00:01;;;;;;;19.55;10.07;;;2.90;86.10;;;;;;5048991;28;20491;-64
2022/11/20 02:02:41;;;;;;;20.80;9.65;;;2.80;86.10;;;;;;5047347;28;20049;-66
2022/11/20 02:05:20;;;;;;;19.55;9.90;;;2.80;86.20;;;;;;5045285;28;20041;-65
2022/11/20 02:07:48;;;;;;;20.63;10.45;;;2.90;86.20;;;;;;5046935;28;20053;-65
2022/11/20 02:10:15;;;;;;;21.08;10.07;;;2.90;86.10;;;;;;5048157;28;20073;-64
2022/11/20 02:15:28;;;;;;;19.50;10.18;;;2.80;86.20;;;;;;5002823;28;20055;-65
2022/11/20 02:17:55;;;;;;;18.88;10.10;;;2.90;86.20;;;;;;5045974;28;20065;-64
2022/11/20 02:20:23;;;;;;;18.48;9.82;;;2.90;86.20;;;;;;5047860;28;20486;-63
2022/11/20 02:22:55;;;;;;;20.77;10.88;;;2.90;86.10;;;;;;5046151;28;20075;-65
2022/11/20 02:25:25;;;;;;;18.58;9.45;;;2.90;85.90;;;;;;5029001;28;20041;-64
2022/11/20 02:27:54;;;;;;;22.60;10.85;;;3.00;85.80;;;;;;5049478;28;20123;-64
2022/11/20 02:30:21;;;;;;;20.10;10.98;;;3.00;85.60;;;;;;5049861;28;20045;-65
2022/11/20 02:32:51;;;;;;;20.25;10.65;;;3.00;85.80;;;;;;5048311;28;20076;-64
2022/11/20 02:35:46;;;;;;;20.67;10.68;;;2.90;85.80;;;;;;5048101;28;20552;-66
2022/11/20 02:38:13;;;;;;;19.48;10.60;;;2.90;85.80;;;;;;5031558;28;20071;-65
2022/11/20 02:40:42;;;;;;;20.92;10.98;;;3.00;85.70;;;;;;5049024;28;20065;-65
2022/11/20 02:43:10;;;;;;;20.30;10.32;;;3.10;85.60;;;;;;5047743;28;20047;-65
2022/11/20 02:45:37;;;;;;;21.60;11.43;;;3.00;85.50;;;;;;5049335;28;20053;-65
2022/11/20 02:48:07;;;;;;;21.60;11.07;;;3.00;85.60;;;;;;5041005;28;20491;-64
2022/11/20 02:50:34;;;;;;;20.50;10.40;;;3.00;85.70;;;;;;5045805;28;20048;-64
2022/11/20 02:53:01;;;;;;;20.70;9.98;;;3.00;85.70;;;;;;5043081;28;20053;-65
2022/11/20 02:55:28;;;;;;;20.60;10.27;;;3.00;85.80;;;;;;5049445;28;20487;-64
2022/11/20 02:57:56;;;;;;;21.05;9.38;;;2.90;85.80;;;;;;5048187;28;20049;-65
2022/11/20 03:00:23;;;;;;;20.77;10.27;;;2.90;85.90;;;;;;5046027;28;20644;-65
2022/11/20 03:02:50;;;;;;;20.25;10.18;;;2.90;86.20;;;;;;5046576;28;23032;-65
2022/11/20 03:05:24;;;;;;;18.38;10.48;;;2.90;86.30;;;;;;5044878;28;20418;-64
2022/11/20 03:07:51;;;;;;;19.33;9.75;;;2.90;86.00;;;;;;5042044;28;20045;-64
2022/11/20 03:10:18;;;;;;;19.38;9.77;;;3.00;85.90;;;;;;5037893;28;20050;-64
2022/11/20 03:12:46;;;;;;;18.33;10.10;;;3.00;86.00;;;;;;5043545;28;20084;-65
2022/11/20 03:15:14;;;;;;;22.13;10.88;;;3.00;85.70;;;;;;5048461;28;20041;-65
2022/11/20 03:17:41;;;;;;;20.05;10.90;;;3.00;85.70;;;;;;5044725;28;20040;-65
2022/11/20 03:20:09;;;;;;;20.77;10.60;;;3.00;86.00;;;;;;5045929;28;20037;-65
2022/11/20 03:22:36;;;;;;;18.40;10.52;;;3.00;86.10;;;;;;5042036;28;20075;-65
2022/11/20 03:25:04;;;;;;;21.23;10.35;;;3.00;86.20;;;;;;5046954;28;20080;-65
2022/11/20 03:27:33;;;;;;;17.73;9.70;;;2.90;86.10;;;;;;5049061;28;20098;-66
2022/11/20 03:30:00;;;;;;;19.15;9.63;;;2.90;86.30;;;;;;5047434;28;20045;-65
2022/11/20 03:32:31;;;;;;;18.50;10.90;;;3.00;86.30;;;;;;5047429;28;20464;-65
2022/11/20 03:34:58;;;;;;;20.85;11.13;;;3.00;86.30;;;;;;5045380;28;20065;-64
2022/11/20 03:37:25;;;;;;;19.65;10.35;;;3.00;86.30;;;;;;5046235;28;20029;-64
2022/11/20 03:39:52;;;;;;;21.02;11.23;;;3.00;86.20;;;;;;5046262;28;20049;-65
2022/11/20 03:45:07;;;;;;;19.80;9.35;;;3.00;85.90;;;;;;5027771;28;20127;-65
2022/11/20 03:47:36;;;;;;;18.73;10.00;;;3.00;86.00;;;;;;5043528;28;20059;-65
2022/11/20 03:50:04;;;;;;;19.40;10.05;;;3.00;86.00;;;;;;5049328;28;20090;-66
2022/11/20 03:52:30;;;;;;;20.20;9.95;;;3.00;85.80;;;;;;5045656;28;20045;-66
2022/11/20 03:54:57;;;;;;;17.45;10.07;;;3.00;85.70;;;;;;5042357;28;20036;-64
2022/11/20 03:57:24;;;;;;;19.98;10.43;;;3.00;85.80;;;;;;5050730;28;20040;-64
2022/11/20 03:59:54;;;;;;;20.48;10.60;;;3.00;85.80;;;;;;5051506;28;20048;-64
2022/11/20 04:02:23;;;;;;;21.17;11.05;;;3.00;85.80;;;;;;5051547;28;20194;-64
2022/11/20 04:04:51;;;;;;;19.15;10.38;;;3.00;85.80;;;;;;5050758;28;20063;-64
2022/11/20 04:07:21;;;;;;;22.15;11.15;;;3.00;85.90;;;;;;5051086;28;20057;-65
2022/11/20 04:09:48;;;;;;;18.95;9.93;;;3.00;86.00;;;;;;5053119;28;20057;-63
2022/11/20 04:12:15;;;;;;;21.88;11.10;;;3.00;85.90;;;;;;5053364;28;20106;-65
2022/11/20 04:14:42;;;;;;;18.70;9.93;;;3.00;86.00;;;;;;5052722;28;20136;-64
2022/11/20 04:17:09;;;;;;;17.17;9.38;;;3.10;85.80;;;;;;5051626;28;20091;-62
2022/11/20 04:19:35;;;;;;;19.50;10.85;;;3.10;85.80;;;;;;5051923;28;20048;-65
2022/11/20 04:22:04;;;;;;;20.98;10.38;;;3.10;85.80;;;;;;5052880;28;20055;-64
2022/11/20 04:24:31;;;;;;;21.42;9.68;;;3.10;85.80;;;;;;5051298;28;20529;-64
2022/11/20 04:26:58;;;;;;;19.50;10.02;;;3.10;86.00;;;;;;5045044;28;20041;-65
2022/11/20 04:29:24;;;;;;;18.60;9.77;;;3.00;86.10;;;;;;5046327;28;20052;-63
2022/11/20 04:31:51;;;;;;;19.23;10.07;;;3.10;86.10;;;;;;5047247;28;20045;-66
2022/11/20 04:34:18;;;;;;;17.23;9.90;;;3.10;86.20;;;;;;5045888;28;20558;-66
2022/11/20 04:36:45;;;;;;;19.75;9.93;;;3.00;86.30;;;;;;5042858;28;20041;-65
2022/11/20 04:39:15;;;;;;;19.58;9.98;;;3.00;86.40;;;;;;5047150;28;20048;-66
2022/11/20 04:41:45;;;;;;;20.50;10.30;;;3.10;86.30;;;;;;5046317;28;20049;-63
2022/11/20 04:44:12;;;;;;;18.73;10.05;;;3.00;86.10;;;;;;5037088;28;20132;-65
2022/11/20 04:46:40;;;;;;;20.38;10.20;;;3.10;86.20;;;;;;5043839;28;20140;-65
2022/11/20 04:49:08;;;;;;;17.40;10.27;;;3.10;86.30;;;;;;5046810;28;20147;-65
2022/11/20 04:51:35;;;;;;;20.48;9.80;;;3.00;86.30;;;;;;5044144;28;20048;-66
2022/11/20 04:54:02;;;;;;;19.60;10.50;;;3.00;86.50;;;;;;5047299;28;20037;-64
2022/11/20 04:56:32;;;;;;;18.30;9.85;;;3.10;86.30;;;;;;5052005;28;20083;-62
2022/11/20 04:59:02;;;;;;;21.23;10.25;;;3.10;86.20;;;;;;5051083;28;20142;-63
2022/11/20 05:01:35;;;;;;;20.90;10.57;;;3.10;86.10;;;;;;5052747;28;20057;-61
2022/11/20 05:04:05;;;;;;;20.88;11.30;;;3.10;86.20;;;;;;5052744;28;20130;-63
2022/11/20 05:06:33;;;;;;;19.83;10.43;;;3.10;86.40;;;;;;5051709;28;20056;-62
2022/11/20 05:09:00;;;;;;;21.67;11.07;;;3.10;86.40;;;;;;5051248;28;20060;-63
2022/11/20 05:11:28;;;;;;;20.40;9.88;;;3.10;86.40;;;;;;5043576;28;20049;-64
2022/11/20 05:13:59;;;;;;;20.92;9.85;;;3.10;86.40;;;;;;5047252;28;20056;-62
2022/11/20 05:16:27;;;;;;;18.98;9.77;;;3.10;86.30;;;;;;5045146;28;20116;-63
2022/11/20 05:18:55;;;;;;;19.58;10.45;;;3.10;86.50;;;;;;5048345;28;20032;-62
2022/11/20 05:21:22;;;;;;;20.10;9.73;;;3.10;86.60;;;;;;5049788;28;20055;-63
2022/11/20 05:23:50;;;;;;;21.23;11.27;;;3.10;86.50;;;;;;5048402;28;20052;-62
2022/11/20 05:26:18;;;;;;;23.40;10.70;;;3.10;86.40;;;;;;5047113;28;20036;-63
2022/11/20 05:28:46;;;;;;;20.70;10.40;;;3.10;86.40;;;;;;5046656;28;20052;-61
2022/11/20 05:31:16;;;;;;;18.77;10.20;;;3.10;86.30;;;;;;5048645;28;20060;-61
2022/11/20 05:33:44;;;;;;;18.35;10.18;;;3.10;86.20;;;;;;5049128;28;20040;-63
2022/11/20 05:36:12;;;;;;;20.65;10.00;;;3.10;86.10;;;;;;5049294;28;20064;-63
2022/11/20 05:38:40;;;;;;;19.13;10.10;;;3.10;86.30;;;;;;5049729;28;20045;-62
2022/11/20 05:41:09;;;;;;;19.55;8.82;;;3.10;86.30;;;;;;5049769;28;20533;-63
2022/11/20 05:43:40;;;;;;;20.10;10.52;;;3.10;86.50;;;;;;5043665;28;20060;-63
2022/11/20 05:46:09;;;;;;;18.95;10.85;;;3.20;86.30;;;;;;5047854;28;20044;-72
2022/11/20 05:48:38;;;;;;;22.48;11.82;;;3.20;86.30;;;;;;5049574;28;20372;-73
2022/11/20 05:51:08;;;;;;;20.17;10.48;;;3.10;86.20;;;;;;5046771;28;20033;-70
2022/11/20 05:53:36;;;;;;;16.70;9.93;;;3.10;86.30;;;;;;5050424;28;20099;-71
2022/11/20 05:56:05;;;;;;;22.90;11.00;;;3.20;86.20;;;;;;5047729;28;20037;-73
2022/11/20 05:58:33;;;;;;;17.00;9.80;;;3.20;86.10;;;;;;5045923;28;20044;-72
2022/11/20 06:01:06;;;;;;;20.40;11.13;;;3.20;86.20;;;;;;5046418;28;20043;-73
2022/11/20 06:03:33;;;;;;;19.63;10.43;;;3.20;86.10;;;;;;5047067;28;20117;-73
2022/11/20 06:06:08;;;;;;;18.95;10.20;;;3.20;86.00;;;;;;5046213;28;20136;-73
2022/11/20 06:08:35;;;;;;;20.05;10.25;;;3.20;86.00;;;;;;5049666;28;20052;-73
2022/11/20 06:11:05;;;;;;;20.42;10.10;;;3.20;85.90;;;;;;5047025;28;20037;-73
2022/11/20 06:13:32;;;;;;;20.15;10.93;;;3.10;86.00;;;;;;5050024;28;20045;-75
2022/11/20 06:15:59;;;;;;;19.13;9.95;;;3.10;86.10;;;;;;5039527;28;20041;-71
2022/11/20 06:18:30;;;;;;;19.35;10.40;;;3.10;86.10;;;;;;5046114;28;20045;-71
2022/11/20 06:21:03;;;;;;;19.35;9.85;;;3.10;86.00;;;;;;5048604;28;20045;-74
2022/11/20 06:23:31;;;;;;;19.65;10.18;;;3.10;86.10;;;;;;5047071;28;20051;-72
2022/11/20 06:26:01;;;;;;;19.83;10.52;;;3.20;86.00;;;;;;5049350;28;20135;-73
2022/11/20 06:28:29;;;;;;;18.05;9.95;;;3.20;86.10;;;;;;5049924;28;20040;-73
2022/11/20 06:30:57;;;;;;;18.80;10.35;;;3.20;86.00;;;;;;5046302;28;20041;-74
2022/11/20 06:33:23;;;;;;;21.60;9.73;;;3.20;86.10;;;;;;5048637;28;20041;-73
2022/11/20 06:35:57;;;;;;;21.60;10.82;;;3.20;86.20;;;;;;5049587;28;20041;-73
2022/11/20 06:38:25;;;;;;;20.38;10.45;;;3.20;86.20;;;;;;5046993;28;20056;-73
2022/11/20 06:40:52;;;;;;;22.40;11.25;;;3.20;86.10;;;;;;5048480;28;20160;-73
2022/11/20 06:43:19;;;;;;;19.85;10.80;;;3.20;86.10;;;;;;5048577;28;20499;-74
2022/11/20 06:45:46;;;;;;;19.80;9.98;;;3.20;86.20;;;;;;5045461;28;20049;-73
2022/11/20 06:48:12;;;;;;;20.02;10.30;;;3.20;86.20;;;;;;5047855;28;20063;-73
2022/11/20 06:50:39;;;;;;;21.30;11.00;;;3.20;86.20;;;;;;5047453;28;20041;-74
2022/11/20 06:53:06;;;;;;;21.73;10.63;;;3.30;86.10;;;;;;5044593;28;20048;-74
2022/11/20 06:55:34;;;;;;;19.48;10.52;;;3.30;86.10;;;;;;5046435;28;20052;-68
2022/11/20 06:58:01;;;;;;;18.27;10.40;;;3.20;85.90;;;;;;5046554;28;20146;-67
2022/11/20 07:00:28;;;;;;;18.23;9.93;;;3.20;86.00;;;;;;5042296;28;20076;-68
2022/11/20 07:02:55;;;;;;;20.52;9.88;;;3.30;86.10;;;;;;5046329;28;20148;-69
2022/11/20 07:05:22;;;;;;;19.58;10.63;;;3.20;85.90;;;;;;5046515;28;20057;-67
2022/11/20 07:07:50;;;;;;;20.30;10.48;;;3.30;85.90;;;;;;5045958;28;20047;-67
2022/11/20 07:10:17;;;;;;;20.60;10.55;;;3.30;85.90;;;;;;5046768;28;20643;-68
2022/11/20 07:12:50;;;;;;;20.67;10.43;;;3.20;85.90;;;;;;5043460;28;20183;-68
2022/11/20 07:15:17;;;;;;;19.05;10.88;;;3.30;86.00;;;;;;5043983;28;20037;-67
2022/11/20 07:17:44;;;;;;;22.33;11.23;;;3.30;86.10;;;;;;5046044;28;20048;-68
2022/11/20 07:20:12;;;;;;;17.52;9.63;;;3.20;86.20;;;;;;5040470;28;20044;-67
2022/11/20 07:22:39;;;;;;;19.05;10.10;;;3.30;86.30;;;;;;5043255;28;20076;-68
2022/11/20 07:25:07;;;;;;;19.52;9.77;;;3.30;86.20;;;;;;5050587;28;20065;-68
2022/11/20 07:27:34;;;;;;;16.65;10.00;;;3.30;86.20;;;;;;5051687;28;20037;-68
2022/11/20 07:30:03;;;;;;;20.48;10.23;;;3.20;86.30;;;;;;5050974;28;20037;-68
2022/11/20 07:32:30;;;;;;;21.23;10.93;;;3.30;86.20;;;;;;5049281;28;20040;-69
2022/11/20 07:34:59;;;;;;;17.33;9.93;;;3.40;86.30;;;;;;5051999;28;20122;-69
2022/11/20 07:37:25;;;;;;;22.48;10.63;;;3.40;86.30;;;;;;5048177;28;20127;-68
2022/11/20 07:39:52;;;;;;;22.38;11.38;;;3.40;86.60;;;;;;5033349;28;20049;-68
2022/11/20 07:42:19;;;;;;;19.10;10.65;;;3.40;86.70;;;;;;5052408;28;20499;-63
2022/11/20 07:44:46;;;;;;;18.33;9.98;;;3.40;86.70;;;;;;5051626;28;20065;-64
2022/11/20 07:47:15;;;;;;;18.23;9.93;;;3.40;86.70;;;;;;5046324;28;20144;-73
2022/11/20 07:49:42;;;;;;;18.17;10.32;;;3.40;86.80;;;;;;5032237;28;20450;-73
2022/11/20 07:52:08;;;;;;;19.98;10.05;;;3.40;86.90;;;;;;5049208;28;20045;-61
2022/11/20 07:54:35;;;;;;;17.67;9.20;;;3.40;87.00;;;;;;5051987;28;20048;-61
2022/11/20 07:57:04;;;;;;;19.75;10.27;;;3.30;87.00;;;;;;5051273;28;20144;-68
2022/11/20 07:59:31;;;;;;;22.00;11.05;;;3.30;87.20;;;;;;5050725;28;20488;-68
2022/11/20 08:01:58;;;;;;;18.50;9.73;;;3.30;87.30;;;;;;5048041;28;20049;-68
2022/11/20 08:04:26;;;;;;;19.60;10.13;;;3.30;87.30;;;;;;5048235;28;20044;-69
2022/11/20 08:06:54;;;;;;;16.13;8.93;;;3.30;87.30;;;;;;5050665;28;20079;-65
2022/11/20 08:09:21;;;;;;;20.70;11.00;;;3.30;87.30;;;;;;5050846;28;20052;-66
2022/11/20 08:14:34;;;;;;;18.88;9.88;;;3.40;87.10;;;;;;5052142;28;20037;-61
2022/11/20 08:17:02;;;;;;;20.52;10.10;;;3.40;87.10;;;;;;5047033;28;20048;-64
2022/11/20 08:19:30;;;;;;;21.02;10.77;;;3.50;87.20;;;;;;5045731;28;20041;-63
2022/11/20 08:21:57;;;;;;;20.20;10.27;;;3.50;87.20;;;;;;5050477;28;20059;-64
2022/11/20 08:24:24;;;;;;;21.30;11.27;;;3.50;87.20;;;;;;5052287;28;20055;-64
2022/11/20 08:26:51;;;;;;;18.27;10.02;;;3.50;87.10;;;;;;5050236;28;20094;-63
2022/11/20 08:29:21;;;;;;;18.60;9.73;;;3.50;87.10;;;;;;5047114;28;20132;-63
2022/11/20 08:31:49;;;;;;;18.70;9.65;;;3.50;87.30;;;;;;5039559;28;20124;-64
2022/11/20 08:34:16;;;;;;;19.70;10.07;;;3.50;87.40;;;;;;5045304;28;20056;-63
2022/11/20 08:36:44;;;;;;;19.58;10.50;;;3.60;87.40;;;;;;5047120;28;20065;-62
2022/11/20 08:39:13;;;;;;;21.70;11.15;;;3.60;87.40;;;;;;5048425;28;20112;-64
2022/11/20 08:41:40;;;;;;;19.00;10.55;;;3.50;87.30;;;;;;5046148;28;20044;-62
2022/11/20 08:44:08;;;;;;;20.50;10.60;;;3.60;87.40;;;;;;5047239;28;20112;-61
2022/11/20 08:46:37;;;;;;;21.33;11.68;;;3.60;87.40;;;;;;5048413;28;21070;-63
2022/11/20 08:49:05;;;;;;;19.38;9.93;;;3.60;87.40;;;;;;5047552;28;20056;-63
2022/11/20 08:51:32;;;;;;;23.52;10.52;;;3.50;87.70;;;;;;5047255;28;20063;-62
2022/11/20 08:54:03;;;;;;;23.80;11.27;;;3.50;87.60;;;;;;5048824;28;20512;-62
2022/11/20 08:56:30;;;;;;;24.10;11.15;;;3.60;87.60;;;;;;5048576;28;20103;-61
2022/11/20 08:58:59;;;;;;;23.63;12.15;;;3.50;87.80;;;;;;5045693;28;20048;-60
2022/11/20 09:01:26;;;;;;;21.83;10.93;;;3.60;87.70;;;;;;5042370;28;20859;-62
2022/11/20 09:03:53;;;;;;;25.15;12.68;;;3.50;87.80;;;;;;5046074;28;20054;-61
2022/11/20 09:06:20;;;;;;;26.13;11.95;;;3.60;88.00;;;;;;5049588;28;20056;-65
2022/11/20 09:08:47;;;;;;;26.55;12.50;;;3.60;87.90;;;;;;5043335;28;20041;-64
2022/11/20 09:11:15;;;;;;;26.90;12.75;;;3.50;87.90;;;;;;5049516;28;20050;-61
2022/11/20 09:13:42;;;;;;;24.98;12.23;;;3.50;88.00;;;;;;5046974;28;20087;-63
2022/11/20 09:16:10;;;;;;;26.58;13.13;;;3.50;88.10;;;;;;5047191;28;20400;-61
2022/11/20 09:18:38;;;;;;;26.77;12.55;;;3.50;88.10;;;;;;5044018;28;20055;-61
2022/11/20 09:21:07;;;;;;;26.23;12.90;;;3.60;88.10;;;;;;5050939;28;20465;-61
2022/11/20 09:23:36;;;;;;;29.95;13.35;;;3.60;88.10;;;;;;5028181;28;20049;-62
2022/11/20 09:26:04;;;;;;;28.08;13.68;;;3.60;88.10;;;;;;5045815;28;20048;-63
2022/11/20 09:28:33;;;;;;;26.42;12.07;;;3.70;88.10;;;;;;5049198;28;20052;-62
2022/11/20 09:31:00;;;;;;;22.20;12.05;;;3.70;88.10;;;;;;5046244;28;20045;-63
2022/11/20 09:33:28;;;;;;;27.85;12.73;;;3.70;88.00;;;;;;5050108;28;20055;-61
2022/11/20 09:35:55;;;;;;;24.25;12.52;;;3.70;88.00;;;;;;5048641;28;20103;-65
2022/11/20 09:38:22;;;;;;;27.98;13.30;;;3.70;88.00;;;;;;5050993;28;20678;-65
2022/11/20 09:40:58;;;;;;;23.63;12.10;;;3.80;87.60;;;;;;5047497;28;20044;-62
2022/11/20 09:43:38;;;;;;;29.05;13.00;;;3.80;87.80;;;;;;5045164;28;20136;-63
2022/11/20 09:46:14;;;;;;;27.95;12.85;;;3.70;88.20;;;;;;5043487;28;20033;-61
2022/11/20 09:48:57;;;;;;;29.02;13.45;;;3.80;88.00;;;;;;5051718;28;20155;-64
2022/11/20 09:51:35;;;;;;;24.77;12.55;;;3.80;88.10;;;;;;5047373;28;20043;-63
2022/11/20 09:54:15;;;;;;;24.02;12.13;;;3.80;88.00;;;;;;5047286;28;20044;-63
2022/11/20 09:56:44;;;;;;;28.17;12.37;;;3.80;87.90;;;;;;5044587;28;20044;-62
2022/11/20 09:59:27;;;;;;;24.00;11.88;;;3.90;88.10;;;;;;5047148;28;20487;-63
2022/11/20 10:01:56;;;;;;;27.02;12.68;;;3.90;87.70;;;;;;5044931;28;20041;-64
2022/11/20 10:04:23;;;;;;;26.95;13.07;;;3.90;88.00;;;;;;5047002;28;20116;-63
2022/11/20 10:06:57;;;;;;;28.52;12.90;;;3.90;88.20;;;;;;5050759;28;20053;-73
2022/11/20 10:09:32;;;;;;;26.27;12.68;;;4.00;87.80;;;;;;5044642;28;20060;-73
2022/11/20 10:12:10;;;;;;;27.13;11.15;;;4.00;88.10;;;;;;5048163;28;20041;-67
2022/11/20 10:14:55;;;;;;;25.00;12.23;;;4.00;88.30;;;;;;5042452;28;20086;-68
2022/11/20 10:17:32;;;;;;;25.30;11.63;;;4.00;88.20;;;;;;5046302;28;20037;-63
2022/11/20 10:20:16;;;;;;;27.30;12.27;;;4.00;87.70;;;;;;5045587;28;20049;-62
2022/11/20 10:23:01;;;;;;;25.13;12.45;;;4.00;88.00;;;;;;5047103;28;20041;-61
2022/11/20 10:25:40;;;;;;;20.23;10.50;;;4.10;88.10;;;;;;5047650;28;20072;-64
2022/11/20 10:28:16;;;;;;;23.23;10.32;;;4.10;88.20;;;;;;5043234;28;20068;-64
2022/11/20 10:30:49;;;;;;;22.98;11.05;;;4.20;88.10;;;;;;5045484;28;20065;-61
2022/11/20 10:33:20;;;;;;;22.98;11.30;;;4.20;87.70;;;;;;5047661;28;20037;-61
2022/11/20 10:35:53;;;;;;;21.67;10.82;;;4.20;88.10;;;;;;5044314;28;20044;-61
2022/11/20 10:38:24;;;;;;;20.10;10.60;;;4.20;87.70;;;;;;5047656;28;20045;-61
2022/11/20 10:41:24;;;;;;;24.48;11.57;;;4.20;88.20;;;;;;5049706;28;20064;-61
2022/11/20 10:43:44;;;;;;;22.10;10.77;;;4.30;88.30;;;;;;5048965;28;20045;-60
2022/11/20 10:46:18;;;;;;;23.67;10.93;;;4.30;87.70;;;;;;5047940;28;20041;-67
2022/11/20 10:48:46;;;;;;;24.20;11.48;;;4.40;88.10;;;;;;5050301;28;20447;-68
2022/11/20 10:51:22;;;;;;;22.02;10.80;;;4.40;88.10;;;;;;5029555;28;20198;-64
2022/11/20 10:53:58;;;;;;;25.95;12.02;;;4.40;87.50;;;;;;5042175;28;20134;-63
2022/11/20 10:56:31;;;;;;;24.30;11.40;;;4.40;88.40;;;;;;5047690;28;20136;-65
2022/11/20 10:59:21;;;;;;;22.40;10.63;;;4.40;87.70;;;;;;5047261;28;20055;-65
2022/11/20 11:01:49;;;;;;;21.80;10.45;;;4.40;88.10;;;;;;5048655;28;20507;-65
2022/11/20 11:04:33;;;;;;;22.08;10.48;;;4.40;87.60;;;;;;5050255;28;20071;-65
2022/11/20 11:07:11;;;;;;;22.98;10.38;;;4.40;88.60;;;;;;5047548;28;20048;-63
2022/11/20 11:09:42;;;;;;;22.58;10.40;;;4.50;88.50;;;;;;5041499;28;20041;-62
2022/11/20 11:12:10;;;;;;;24.52;11.52;;;4.50;88.40;;;;;;5047644;28;20048;-66
2022/11/20 11:14:48;;;;;;;22.23;10.50;;;4.50;88.10;;;;;;5042989;28;20075;-65
2022/11/20 11:17:27;;;;;;;22.98;10.43;;;4.40;88.40;;;;;;5044540;28;20043;-66
2022/11/20 11:20:03;;;;;;;23.35;10.82;;;4.50;88.40;;;;;;5047715;28;20107;-66
2022/11/20 11:22:31;;;;;;;21.63;10.20;;;4.40;88.20;;;;;;5043849;28;20041;-66
2022/11/20 11:24:58;;;;;;;20.77;10.60;;;4.50;87.90;;;;;;5043167;28;20136;-66
2022/11/20 11:27:24;;;;;;;20.00;8.73;;;4.50;88.30;;;;;;5047774;28;20056;-66
2022/11/20 11:30:03;;;;;;;20.23;10.23;;;4.60;87.90;;;;;;5039329;28;20142;-66
2022/11/20 11:32:32;;;;;;;21.63;9.20;;;4.60;88.10;;;;;;5043558;28;20130;-65
2022/11/20 11:35:04;;;;;;;18.85;9.13;;;4.70;88.00;;;;;;5048769;28;20124;-66
2022/11/20 11:37:36;;;;;;;17.13;7.93;;;4.70;87.90;;;;;;5048509;28;20065;-67
2022/11/20 11:40:05;;;;;;;15.02;7.72;;;4.70;87.80;;;;;;5049088;28;20114;-66
2022/11/20 11:42:34;;;;;;;15.43;7.70;;;4.70;87.80;;;;;;5048362;28;20041;-66
2022/11/20 11:45:06;;;;;;;16.15;7.53;;;4.70;87.70;;;;;;5049312;28;20072;-65
2022/11/20 11:47:38;;;;;;;18.23;7.72;;;4.70;87.50;;;;;;5049278;28;20056;-64
2022/11/20 11:50:17;;;;;;;16.88;7.85;;;4.70;87.50;;;;;;5046107;28;20044;-66
2022/11/20 11:52:49;;;;;;;16.02;7.90;;;4.70;87.60;;;;;;5046076;28;20041;-66
2022/11/20 11:55:23;;;;;;;15.27;8.02;;;4.60;87.60;;;;;;5038933;28;20084;-62
2022/11/20 11:57:56;;;;;;;17.05;9.05;;;4.60;87.70;;;;;;5046741;28;20065;-60
2022/11/20 12:00:24;;;;;;;18.88;7.88;;;4.60;87.70;;;;;;5042943;28;20045;-62
2022/11/20 12:03:05;;;;;;;15.25;7.45;;;4.70;87.60;;;;;;5046415;28;20063;-61
2022/11/20 12:05:37;;;;;;;16.52;8.90;;;4.70;87.40;;;;;;5047119;28;20071;-60
2022/11/20 12:08:11;;;;;;;15.45;7.68;;;4.70;87.40;;;;;;5049133;28;20494;-62
2022/11/20 12:10:45;;;;;;;14.93;7.13;;;4.70;87.20;;;;;;5050760;28;20056;-62
2022/11/20 12:13:22;;;;;;;15.55;7.80;;;4.70;87.20;;;;;;5049920;28;20498;-62
2022/11/20 12:15:50;;;;;;;17.63;8.88;;;4.70;87.20;;;;;;5049885;28;20045;-62
2022/11/20 12:18:20;;;;;;;17.65;8.63;;;4.70;87.30;;;;;;5050569;28;20111;-62
2022/11/20 12:20:51;;;;;;;;;;;4.70;87.20;;;;;;5048916;28;20127;-71
2022/11/20 12:23:27;;;;;;;17.73;7.65;;;4.70;87.20;;;;;;5050227;28;20460;-71
2022/11/20 12:25:57;;;;;;;17.75;8.77;;;4.70;87.10;;;;;;5050284;28;20120;-70
2022/11/20 12:28:37;;;;;;;16.27;8.23;;;4.70;87.10;;;;;;5049666;28;20123;-71
2022/11/20 12:31:29;;;;;;;16.10;8.13;;;4.80;87.10;;;;;;5052771;28;20063;-63
2022/11/20 12:34:14;;;;;;;16.95;9.30;;;4.80;87.00;;;;;;5048523;28;20483;-65
2022/11/20 12:36:52;;;;;;;16.83;8.32;;;4.80;87.00;;;;;;5051358;28;20052;-65
2022/11/20 12:39:38;;;;;;;15.68;8.52;;;4.90;86.90;;;;;;5049489;28;20053;-64
2022/11/20 12:45:47;;;;;;;16.92;8.18;;;4.90;86.80;;;;;;5028024;28;20111;-63
2022/11/20 12:48:34;;;;;;;16.23;8.27;;;4.90;86.70;;;;;;5050505;28;20068;-64
2022/11/20 12:51:22;;;;;;;15.52;8.18;;;5.00;86.40;;;;;;5047551;28;20095;-73
2022/11/20 12:54:01;;;;;;;15.98;8.30;;;4.90;86.40;;;;;;5051503;28;20033;-73
2022/11/20 12:56:38;;;;;;;17.03;8.50;;;5.00;86.40;;;;;;5052858;28;20155;-63
2022/11/20 12:59:24;;;;;;;15.98;8.95;;;4.90;86.40;;;;;;5050660;28;20052;-63
2022/11/20 13:01:57;;;;;;;15.27;8.15;;;5.00;86.40;;;;;;5052319;28;20063;-62
2022/11/20 13:04:49;;;;;;;17.02;9.23;;;5.00;86.50;;;;;;5050158;28;20411;-63
2022/11/20 13:07:20;;;;;;;16.75;8.27;;;5.00;86.50;;;;;;5043287;28;20048;-72
2022/11/20 13:09:50;;;;;;;15.75;8.60;;;5.00;86.40;;;;;;5049828;28;20053;-70